sensor_id;sensor_type;location;lat;lon;timestamp;temperature;humidity
13322;DHT22;6730;46.248;6.930;2023-12-22T00:02:01;7.30;99.90
13322;DHT22;6730;46.248;6.930;2023-12-22T00:04:26;7.30;99.90
13322;DHT22;6730;46.248;6.930;2023-12-22T00:06:52;7.30;99.90
13322;DHT22;6730;46.248;6.930;2023-12-22T00:09:18;7.30;99.90
13322;DHT22;6730;46.248;6.930;2023-12-22T00:11:44;7.40;99.90
13322;DHT22;6730;46.248;6.930;2023-12-22T00:14:09;7.50;99.90
13322;DHT22;6730;46.248;6.930;2023-12-22T00:16:37;7.50;99.90
13322;DHT22;6730;46.248;6.930;2023-12-22T00:19:03;7.50;99.90
13322;DHT22;6730;46.248;6.930;2023-12-22T00:21:28;7.30;99.90
13322;DHT22;6730;46.248;6.930;2023-12-22T00:23:54;7.30;99.90
13322;DHT22;6730;46.248;6.930;2023-12-22T00:26:20;7.20;99.90
13322;DHT22;6730;46.248;6.930;2023-12-22T00:28:45;7.10;99.90
13322;DHT22;6730;46.248;6.930;2023-12-22T00:31:11;7.10;99.90
13322;DHT22;6730;46.248;6.930;2023-12-22T00:33:38;7.20;99.90
13322;DHT22;6730;46.248;6.930;2023-12-22T00:36:04;7.10;99.90
13322;DHT22;6730;46.248;6.930;2023-12-22T00:38:30;7.20;99.90
13322;DHT22;6730;46.248;6.930;2023-12-22T00:40:56;7.20;99.90
13322;DHT22;6730;46.248;6.930;2023-12-22T00:43:22;7.30;99.90
13322;DHT22;6730;46.248;6.930;2023-12-22T00:45:47;7.20;99.90
13322;DHT22;6730;46.248;6.930;2023-12-22T00:48:13;7.30;99.90
13322;DHT22;6730;46.248;6.930;2023-12-22T00:50:38;7.30;99.90
13322;DHT22;6730;46.248;6.930;2023-12-22T00:53:04;7.20;99.90
13322;DHT22;6730;46.248;6.930;2023-12-22T00:55:30;7.30;99.90
13322;DHT22;6730;46.248;6.930;2023-12-22T00:57:55;7.40;99.90
13322;DHT22;6730;46.248;6.930;2023-12-22T01:00:21;7.60;99.90
13322;DHT22;6730;46.248;6.930;2023-12-22T01:02:46;7.40;99.90
13322;DHT22;6730;46.248;6.930;2023-12-22T01:05:12;7.30;99.90
13322;DHT22;6730;46.248;6.930;2023-12-22T01:07:38;7.40;99.90
13322;DHT22;6730;46.248;6.930;2023-12-22T01:10:04;7.40;99.90
13322;DHT22;6730;46.248;6.930;2023-12-22T01:12:30;7.40;99.90
13322;DHT22;6730;46.248;6.930;2023-12-22T01:14:57;7.40;99.90
13322;DHT22;6730;46.248;6.930;2023-12-22T01:17:22;7.30;99.90
13322;DHT22;6730;46.248;6.930;2023-12-22T01:19:48;7.30;99.90
13322;DHT22;6730;46.248;6.930;2023-12-22T01:22:14;7.30;99.90
13322;DHT22;6730;46.248;6.930;2023-12-22T01:24:40;7.30;99.90
13322;DHT22;6730;46.248;6.930;2023-12-22T01:27:09;7.10;99.90
13322;DHT22;6730;46.248;6.930;2023-12-22T01:29:35;7.00;99.90
13322;DHT22;6730;46.248;6.930;2023-12-22T01:32:00;7.10;99.90
13322;DHT22;6730;46.248;6.930;2023-12-22T01:34:26;7.10;99.90
13322;DHT22;6730;46.248;6.930;2023-12-22T01:36:51;7.10;99.90
13322;DHT22;6730;46.248;6.930;2023-12-22T01:39:17;7.20;99.90
13322;DHT22;6730;46.248;6.930;2023-12-22T01:41:43;7.20;99.90
13322;DHT22;6730;46.248;6.930;2023-12-22T01:44:08;7.10;99.90
13322;DHT22;6730;46.248;6.930;2023-12-22T01:46:35;7.00;99.90
13322;DHT22;6730;46.248;6.930;2023-12-22T01:49:02;7.10;99.90
13322;DHT22;6730;46.248;6.930;2023-12-22T01:51:29;7.00;99.90
13322;DHT22;6730;46.248;6.930;2023-12-22T01:53:56;7.10;99.90
13322;DHT22;6730;46.248;6.930;2023-12-22T01:56:22;7.20;99.90
13322;DHT22;6730;46.248;6.930;2023-12-22T01:58:55;7.10;99.90
13322;DHT22;6730;46.248;6.930;2023-12-22T02:01:22;7.10;99.90
13322;DHT22;6730;46.248;6.930;2023-12-22T02:03:49;7.10;99.90
13322;DHT22;6730;46.248;6.930;2023-12-22T02:06:18;7.10;99.90
13322;DHT22;6730;46.248;6.930;2023-12-22T02:08:46;7.10;99.90
13322;DHT22;6730;46.248;6.930;2023-12-22T02:11:12;7.20;99.90
13322;DHT22;6730;46.248;6.930;2023-12-22T02:13:38;7.10;99.90
13322;DHT22;6730;46.248;6.930;2023-12-22T02:16:31;7.00;99.90
13322;DHT22;6730;46.248;6.930;2023-12-22T02:18:56;7.10;99.90
13322;DHT22;6730;46.248;6.930;2023-12-22T02:21:24;7.10;99.90
13322;DHT22;6730;46.248;6.930;2023-12-22T02:23:50;7.30;99.90
13322;DHT22;6730;46.248;6.930;2023-12-22T02:26:42;7.20;99.90
13322;DHT22;6730;46.248;6.930;2023-12-22T02:29:10;7.30;99.90
13322;DHT22;6730;46.248;6.930;2023-12-22T02:31:39;7.40;99.90
13322;DHT22;6730;46.248;6.930;2023-12-22T02:34:12;7.10;99.90
13322;DHT22;6730;46.248;6.930;2023-12-22T02:36:40;7.00;99.90
13322;DHT22;6730;46.248;6.930;2023-12-22T02:39:07;7.10;99.90
13322;DHT22;6730;46.248;6.930;2023-12-22T02:41:33;7.20;99.90
13322;DHT22;6730;46.248;6.930;2023-12-22T02:44:00;7.00;99.90
13322;DHT22;6730;46.248;6.930;2023-12-22T02:46:26;7.20;99.90
13322;DHT22;6730;46.248;6.930;2023-12-22T02:48:51;7.20;99.90
13322;DHT22;6730;46.248;6.930;2023-12-22T02:51:17;7.10;99.90
13322;DHT22;6730;46.248;6.930;2023-12-22T02:53:43;7.20;99.90
13322;DHT22;6730;46.248;6.930;2023-12-22T02:56:08;7.30;99.90
13322;DHT22;6730;46.248;6.930;2023-12-22T02:58:34;7.40;99.90
13322;DHT22;6730;46.248;6.930;2023-12-22T03:00:59;7.60;99.90
13322;DHT22;6730;46.248;6.930;2023-12-22T03:03:25;7.70;99.90
13322;DHT22;6730;46.248;6.930;2023-12-22T03:05:51;7.20;99.90
13322;DHT22;6730;46.248;6.930;2023-12-22T03:08:16;6.90;99.90
13322;DHT22;6730;46.248;6.930;2023-12-22T03:10:42;6.80;99.90
13322;DHT22;6730;46.248;6.930;2023-12-22T03:13:07;6.60;99.90
13322;DHT22;6730;46.248;6.930;2023-12-22T03:15:33;6.50;99.90
13322;DHT22;6730;46.248;6.930;2023-12-22T03:17:59;6.50;99.90
13322;DHT22;6730;46.248;6.930;2023-12-22T03:20:24;6.40;99.90
13322;DHT22;6730;46.248;6.930;2023-12-22T03:22:50;6.40;99.90
13322;DHT22;6730;46.248;6.930;2023-12-22T03:25:16;6.40;99.90
13322;DHT22;6730;46.248;6.930;2023-12-22T03:27:41;6.40;99.90
13322;DHT22;6730;46.248;6.930;2023-12-22T03:30:07;6.50;99.90
13322;DHT22;6730;46.248;6.930;2023-12-22T03:32:33;6.60;99.90
13322;DHT22;6730;46.248;6.930;2023-12-22T03:34:58;6.80;99.90
13322;DHT22;6730;46.248;6.930;2023-12-22T03:37:24;7.00;99.90
13322;DHT22;6730;46.248;6.930;2023-12-22T03:39:50;7.20;99.90
13322;DHT22;6730;46.248;6.930;2023-12-22T03:42:18;7.00;99.90
13322;DHT22;6730;46.248;6.930;2023-12-22T03:44:44;6.90;99.90
13322;DHT22;6730;46.248;6.930;2023-12-22T03:47:10;6.70;99.90
13322;DHT22;6730;46.248;6.930;2023-12-22T03:49:35;6.70;99.90
13322;DHT22;6730;46.248;6.930;2023-12-22T03:52:01;6.60;99.90
13322;DHT22;6730;46.248;6.930;2023-12-22T03:54:27;6.60;99.90
13322;DHT22;6730;46.248;6.930;2023-12-22T03:56:52;6.60;99.90
13322;DHT22;6730;46.248;6.930;2023-12-22T03:59:18;6.50;99.90
13322;DHT22;6730;46.248;6.930;2023-12-22T04:01:44;6.50;99.90
13322;DHT22;6730;46.248;6.930;2023-12-22T04:04:09;6.70;99.90
13322;DHT22;6730;46.248;6.930;2023-12-22T04:06:38;6.90;99.90
13322;DHT22;6730;46.248;6.930;2023-12-22T04:09:05;6.80;99.90
13322;DHT22;6730;46.248;6.930;2023-12-22T04:11:31;6.60;99.90
13322;DHT22;6730;46.248;6.930;2023-12-22T04:13:56;6.60;99.90
13322;DHT22;6730;46.248;6.930;2023-12-22T04:16:22;6.60;99.90
13322;DHT22;6730;46.248;6.930;2023-12-22T04:18:48;6.90;99.90
13322;DHT22;6730;46.248;6.930;2023-12-22T04:21:13;6.90;99.90
13322;DHT22;6730;46.248;6.930;2023-12-22T04:23:39;6.90;99.90
13322;DHT22;6730;46.248;6.930;2023-12-22T04:26:04;6.90;99.90
13322;DHT22;6730;46.248;6.930;2023-12-22T04:28:30;6.90;99.90
13322;DHT22;6730;46.248;6.930;2023-12-22T04:30:56;6.90;99.90
13322;DHT22;6730;46.248;6.930;2023-12-22T04:33:21;6.90;99.90
13322;DHT22;6730;46.248;6.930;2023-12-22T04:35:47;6.80;99.90
13322;DHT22;6730;46.248;6.930;2023-12-22T04:38:12;6.70;99.90
13322;DHT22;6730;46.248;6.930;2023-12-22T04:40:38;6.70;99.90
13322;DHT22;6730;46.248;6.930;2023-12-22T04:43:04;6.60;99.90
13322;DHT22;6730;46.248;6.930;2023-12-22T04:45:29;6.70;99.90
13322;DHT22;6730;46.248;6.930;2023-12-22T04:47:55;6.80;99.90
13322;DHT22;6730;46.248;6.930;2023-12-22T04:50:21;6.90;99.90
13322;DHT22;6730;46.248;6.930;2023-12-22T04:52:46;7.00;99.90
13322;DHT22;6730;46.248;6.930;2023-12-22T04:55:12;7.00;99.90
13322;DHT22;6730;46.248;6.930;2023-12-22T04:57:38;6.90;99.90
13322;DHT22;6730;46.248;6.930;2023-12-22T05:00:04;7.00;99.90
13322;DHT22;6730;46.248;6.930;2023-12-22T05:02:30;6.80;99.90
13322;DHT22;6730;46.248;6.930;2023-12-22T05:04:56;6.80;99.90
13322;DHT22;6730;46.248;6.930;2023-12-22T05:07:21;6.90;99.90
13322;DHT22;6730;46.248;6.930;2023-12-22T05:09:47;6.90;99.90
13322;DHT22;6730;46.248;6.930;2023-12-22T05:12:13;6.80;99.90
13322;DHT22;6730;46.248;6.930;2023-12-22T05:14:39;7.00;99.90
13322;DHT22;6730;46.248;6.930;2023-12-22T05:17:05;6.90;99.90
13322;DHT22;6730;46.248;6.930;2023-12-22T05:19:30;6.90;99.90
13322;DHT22;6730;46.248;6.930;2023-12-22T05:21:56;7.00;99.90
13322;DHT22;6730;46.248;6.930;2023-12-22T05:24:22;6.80;99.90
13322;DHT22;6730;46.248;6.930;2023-12-22T05:26:48;6.60;99.90
13322;DHT22;6730;46.248;6.930;2023-12-22T05:29:13;6.60;99.90
13322;DHT22;6730;46.248;6.930;2023-12-22T05:31:39;6.50;99.90
13322;DHT22;6730;46.248;6.930;2023-12-22T05:34:05;6.60;99.90
13322;DHT22;6730;46.248;6.930;2023-12-22T05:36:31;6.50;99.90
13322;DHT22;6730;46.248;6.930;2023-12-22T05:38:57;6.50;99.90
13322;DHT22;6730;46.248;6.930;2023-12-22T05:41:22;6.50;99.90
13322;DHT22;6730;46.248;6.930;2023-12-22T05:43:48;6.50;99.90
13322;DHT22;6730;46.248;6.930;2023-12-22T05:46:14;6.60;99.90
13322;DHT22;6730;46.248;6.930;2023-12-22T05:48:39;6.50;99.90
13322;DHT22;6730;46.248;6.930;2023-12-22T05:51:05;6.50;99.90
13322;DHT22;6730;46.248;6.930;2023-12-22T05:53:35;6.50;99.90
13322;DHT22;6730;46.248;6.930;2023-12-22T05:56:01;6.50;99.90
13322;DHT22;6730;46.248;6.930;2023-12-22T05:58:26;6.60;99.90
13322;DHT22;6730;46.248;6.930;2023-12-22T06:00:52;6.80;99.90
13322;DHT22;6730;46.248;6.930;2023-12-22T06:03:17;6.90;99.90
13322;DHT22;6730;46.248;6.930;2023-12-22T06:05:43;7.00;99.90
13322;DHT22;6730;46.248;6.930;2023-12-22T06:08:09;7.20;99.90
13322;DHT22;6730;46.248;6.930;2023-12-22T06:10:35;7.40;99.90
13322;DHT22;6730;46.248;6.930;2023-12-22T06:13:01;7.00;99.90
13322;DHT22;6730;46.248;6.930;2023-12-22T06:15:29;6.80;99.90
13322;DHT22;6730;46.248;6.930;2023-12-22T06:17:55;6.80;99.90
13322;DHT22;6730;46.248;6.930;2023-12-22T06:20:20;6.80;99.90
13322;DHT22;6730;46.248;6.930;2023-12-22T06:22:46;6.70;99.90
13322;DHT22;6730;46.248;6.930;2023-12-22T06:25:11;6.60;99.90
13322;DHT22;6730;46.248;6.930;2023-12-22T06:27:37;6.60;99.90
13322;DHT22;6730;46.248;6.930;2023-12-22T06:30:07;6.90;99.90
13322;DHT22;6730;46.248;6.930;2023-12-22T06:32:33;6.80;99.90
13322;DHT22;6730;46.248;6.930;2023-12-22T06:34:58;6.70;99.90
13322;DHT22;6730;46.248;6.930;2023-12-22T06:37:26;6.80;99.90
13322;DHT22;6730;46.248;6.930;2023-12-22T06:39:51;7.00;99.90
13322;DHT22;6730;46.248;6.930;2023-12-22T06:42:17;6.80;99.90
13322;DHT22;6730;46.248;6.930;2023-12-22T06:44:43;6.90;99.90
13322;DHT22;6730;46.248;6.930;2023-12-22T06:47:11;6.80;99.90
13322;DHT22;6730;46.248;6.930;2023-12-22T06:49:36;6.80;99.90
13322;DHT22;6730;46.248;6.930;2023-12-22T06:52:02;6.70;99.90
13322;DHT22;6730;46.248;6.930;2023-12-22T06:54:28;6.60;99.90
13322;DHT22;6730;46.248;6.930;2023-12-22T06:56:54;6.50;99.90
13322;DHT22;6730;46.248;6.930;2023-12-22T06:59:20;6.50;99.90
13322;DHT22;6730;46.248;6.930;2023-12-22T07:01:45;6.40;99.90
13322;DHT22;6730;46.248;6.930;2023-12-22T07:04:11;6.40;99.90
13322;DHT22;6730;46.248;6.930;2023-12-22T07:06:37;6.30;99.90
13322;DHT22;6730;46.248;6.930;2023-12-22T07:11:59;6.30;99.90
13322;DHT22;6730;46.248;6.930;2023-12-22T07:14:24;6.50;99.90
13322;DHT22;6730;46.248;6.930;2023-12-22T07:16:50;6.80;99.90
13322;DHT22;6730;46.248;6.930;2023-12-22T07:19:16;6.80;99.90
13322;DHT22;6730;46.248;6.930;2023-12-22T07:21:42;6.70;99.90
13322;DHT22;6730;46.248;6.930;2023-12-22T07:24:07;6.80;99.90
13322;DHT22;6730;46.248;6.930;2023-12-22T07:26:33;6.70;99.90
13322;DHT22;6730;46.248;6.930;2023-12-22T07:28:59;6.50;99.90
13322;DHT22;6730;46.248;6.930;2023-12-22T07:31:24;6.60;99.90
13322;DHT22;6730;46.248;6.930;2023-12-22T07:33:51;6.60;99.90
13322;DHT22;6730;46.248;6.930;2023-12-22T07:36:17;6.70;99.90
13322;DHT22;6730;46.248;6.930;2023-12-22T07:38:44;6.80;99.90
13322;DHT22;6730;46.248;6.930;2023-12-22T07:41:10;6.80;99.90
13322;DHT22;6730;46.248;6.930;2023-12-22T07:43:36;6.70;99.90
13322;DHT22;6730;46.248;6.930;2023-12-22T07:46:02;6.70;99.90
13322;DHT22;6730;46.248;6.930;2023-12-22T07:48:27;6.60;99.90
13322;DHT22;6730;46.248;6.930;2023-12-22T07:50:53;6.60;99.90
13322;DHT22;6730;46.248;6.930;2023-12-22T07:53:19;6.70;99.90
13322;DHT22;6730;46.248;6.930;2023-12-22T07:55:45;6.80;99.90
13322;DHT22;6730;46.248;6.930;2023-12-22T07:58:12;7.00;99.90
13322;DHT22;6730;46.248;6.930;2023-12-22T08:00:38;7.00;99.90
13322;DHT22;6730;46.248;6.930;2023-12-22T08:03:04;6.90;99.90
13322;DHT22;6730;46.248;6.930;2023-12-22T08:05:29;6.90;99.90
13322;DHT22;6730;46.248;6.930;2023-12-22T08:07:56;6.90;99.90
13322;DHT22;6730;46.248;6.930;2023-12-22T08:10:21;7.00;99.90
13322;DHT22;6730;46.248;6.930;2023-12-22T08:12:47;7.00;99.90
13322;DHT22;6730;46.248;6.930;2023-12-22T08:15:13;7.10;99.90
13322;DHT22;6730;46.248;6.930;2023-12-22T08:17:51;7.40;99.90
13322;DHT22;6730;46.248;6.930;2023-12-22T08:20:21;7.20;99.90
13322;DHT22;6730;46.248;6.930;2023-12-22T08:22:50;7.10;99.90
13322;DHT22;6730;46.248;6.930;2023-12-22T08:25:16;7.10;99.90
13322;DHT22;6730;46.248;6.930;2023-12-22T08:27:45;7.10;99.90
13322;DHT22;6730;46.248;6.930;2023-12-22T08:30:11;6.80;99.90
13322;DHT22;6730;46.248;6.930;2023-12-22T08:32:37;6.70;99.90
13322;DHT22;6730;46.248;6.930;2023-12-22T08:35:03;6.90;99.90
13322;DHT22;6730;46.248;6.930;2023-12-22T08:37:30;7.00;99.90
13322;DHT22;6730;46.248;6.930;2023-12-22T08:39:56;7.00;99.90
13322;DHT22;6730;46.248;6.930;2023-12-22T08:42:21;7.00;99.90
13322;DHT22;6730;46.248;6.930;2023-12-22T08:44:48;7.10;99.90
13322;DHT22;6730;46.248;6.930;2023-12-22T08:47:13;7.10;99.90
13322;DHT22;6730;46.248;6.930;2023-12-22T08:49:39;7.10;99.90
13322;DHT22;6730;46.248;6.930;2023-12-22T08:52:05;7.20;99.90
13322;DHT22;6730;46.248;6.930;2023-12-22T08:54:30;7.10;99.90
13322;DHT22;6730;46.248;6.930;2023-12-22T08:56:56;7.00;99.90
13322;DHT22;6730;46.248;6.930;2023-12-22T08:59:22;6.90;99.90
13322;DHT22;6730;46.248;6.930;2023-12-22T09:01:48;7.00;99.90
13322;DHT22;6730;46.248;6.930;2023-12-22T09:04:13;6.90;99.90
13322;DHT22;6730;46.248;6.930;2023-12-22T09:06:40;7.00;99.90
13322;DHT22;6730;46.248;6.930;2023-12-22T09:09:06;6.90;99.90
13322;DHT22;6730;46.248;6.930;2023-12-22T09:11:35;6.90;99.90
13322;DHT22;6730;46.248;6.930;2023-12-22T09:14:00;6.80;99.90
13322;DHT22;6730;46.248;6.930;2023-12-22T09:16:26;6.80;99.90
13322;DHT22;6730;46.248;6.930;2023-12-22T09:18:52;6.80;99.90
13322;DHT22;6730;46.248;6.930;2023-12-22T09:21:18;6.70;99.90
13322;DHT22;6730;46.248;6.930;2023-12-22T09:23:45;6.40;99.90
13322;DHT22;6730;46.248;6.930;2023-12-22T09:26:12;6.30;99.90
13322;DHT22;6730;46.248;6.930;2023-12-22T09:28:39;6.20;99.90
13322;DHT22;6730;46.248;6.930;2023-12-22T09:31:04;6.30;99.90
13322;DHT22;6730;46.248;6.930;2023-12-22T09:33:31;6.40;99.90
13322;DHT22;6730;46.248;6.930;2023-12-22T09:35:57;6.50;99.90
13322;DHT22;6730;46.248;6.930;2023-12-22T09:38:23;6.50;99.90
13322;DHT22;6730;46.248;6.930;2023-12-22T09:40:50;6.50;99.90
13322;DHT22;6730;46.248;6.930;2023-12-22T09:43:16;6.50;99.90
13322;DHT22;6730;46.248;6.930;2023-12-22T09:45:45;6.40;99.90
13322;DHT22;6730;46.248;6.930;2023-12-22T09:48:12;6.50;99.90
13322;DHT22;6730;46.248;6.930;2023-12-22T09:50:46;6.50;99.90
13322;DHT22;6730;46.248;6.930;2023-12-22T09:53:14;6.60;99.90
13322;DHT22;6730;46.248;6.930;2023-12-22T09:55:46;6.80;99.90
13322;DHT22;6730;46.248;6.930;2023-12-22T09:58:13;7.10;99.90
13322;DHT22;6730;46.248;6.930;2023-12-22T10:00:40;7.20;99.90
13322;DHT22;6730;46.248;6.930;2023-12-22T10:03:07;7.20;99.90
13322;DHT22;6730;46.248;6.930;2023-12-22T10:05:33;7.20;99.90
13322;DHT22;6730;46.248;6.930;2023-12-22T10:08:01;7.30;99.90
13322;DHT22;6730;46.248;6.930;2023-12-22T10:10:28;7.20;99.90
13322;DHT22;6730;46.248;6.930;2023-12-22T10:12:59;7.20;99.90
13322;DHT22;6730;46.248;6.930;2023-12-22T10:15:24;7.20;99.90
13322;DHT22;6730;46.248;6.930;2023-12-22T10:17:52;7.30;99.90
13322;DHT22;6730;46.248;6.930;2023-12-22T10:20:18;7.10;99.90
13322;DHT22;6730;46.248;6.930;2023-12-22T10:22:43;7.20;99.90
13322;DHT22;6730;46.248;6.930;2023-12-22T10:25:09;7.10;99.90
13322;DHT22;6730;46.248;6.930;2023-12-22T10:27:37;7.00;99.90
13322;DHT22;6730;46.248;6.930;2023-12-22T10:30:04;7.10;99.90
13322;DHT22;6730;46.248;6.930;2023-12-22T10:32:29;7.00;99.90
13322;DHT22;6730;46.248;6.930;2023-12-22T10:34:58;7.20;99.90
13322;DHT22;6730;46.248;6.930;2023-12-22T10:37:27;7.30;99.90
13322;DHT22;6730;46.248;6.930;2023-12-22T10:39:54;7.00;99.90
13322;DHT22;6730;46.248;6.930;2023-12-22T10:42:19;7.00;99.90
13322;DHT22;6730;46.248;6.930;2023-12-22T10:44:45;7.30;99.90
13322;DHT22;6730;46.248;6.930;2023-12-22T10:47:11;7.60;99.90
13322;DHT22;6730;46.248;6.930;2023-12-22T10:49:38;7.60;99.90
13322;DHT22;6730;46.248;6.930;2023-12-22T10:52:04;7.50;99.90
13322;DHT22;6730;46.248;6.930;2023-12-22T10:54:30;7.20;99.90
13322;DHT22;6730;46.248;6.930;2023-12-22T10:56:59;6.70;99.90
13322;DHT22;6730;46.248;6.930;2023-12-22T10:59:28;6.60;99.90
13322;DHT22;6730;46.248;6.930;2023-12-22T11:01:57;6.50;99.90
13322;DHT22;6730;46.248;6.930;2023-12-22T11:04:30;6.30;99.90
13322;DHT22;6730;46.248;6.930;2023-12-22T11:07:03;6.60;99.90
13322;DHT22;6730;46.248;6.930;2023-12-22T11:09:31;7.10;99.90
13322;DHT22;6730;46.248;6.930;2023-12-22T11:11:57;7.60;99.90
13322;DHT22;6730;46.248;6.930;2023-12-22T11:14:25;7.30;99.90
13322;DHT22;6730;46.248;6.930;2023-12-22T11:16:53;6.80;99.90
13322;DHT22;6730;46.248;6.930;2023-12-22T11:19:20;6.50;99.90
13322;DHT22;6730;46.248;6.930;2023-12-22T11:21:50;6.30;99.90
13322;DHT22;6730;46.248;6.930;2023-12-22T11:24:17;6.70;99.90
13322;DHT22;6730;46.248;6.930;2023-12-22T11:26:45;7.10;99.90
13322;DHT22;6730;46.248;6.930;2023-12-22T11:29:14;7.40;99.90
13322;DHT22;6730;46.248;6.930;2023-12-22T11:31:41;7.70;99.90
13322;DHT22;6730;46.248;6.930;2023-12-22T11:34:09;7.90;99.90
13322;DHT22;6730;46.248;6.930;2023-12-22T11:36:40;8.10;99.90
13322;DHT22;6730;46.248;6.930;2023-12-22T11:39:08;7.90;99.90
13322;DHT22;6730;46.248;6.930;2023-12-22T11:41:35;7.70;99.90
13322;DHT22;6730;46.248;6.930;2023-12-22T11:44:04;7.50;99.90
13322;DHT22;6730;46.248;6.930;2023-12-22T11:46:30;7.40;99.90
13322;DHT22;6730;46.248;6.930;2023-12-22T11:48:59;7.00;99.90
13322;DHT22;6730;46.248;6.930;2023-12-22T11:51:31;7.00;99.90
13322;DHT22;6730;46.248;6.930;2023-12-22T11:53:57;7.30;99.90
13322;DHT22;6730;46.248;6.930;2023-12-22T11:56:24;7.50;99.90
13322;DHT22;6730;46.248;6.930;2023-12-22T11:58:52;7.60;99.90
13322;DHT22;6730;46.248;6.930;2023-12-22T12:01:21;7.70;99.90
13322;DHT22;6730;46.248;6.930;2023-12-22T12:03:59;7.70;99.90
13322;DHT22;6730;46.248;6.930;2023-12-22T12:08:56;7.00;99.90
13322;DHT22;6730;46.248;6.930;2023-12-22T12:11:23;7.10;99.90
13322;DHT22;6730;46.248;6.930;2023-12-22T12:13:50;7.40;99.90
13322;DHT22;6730;46.248;6.930;2023-12-22T12:16:20;7.70;99.90
13322;DHT22;6730;46.248;6.930;2023-12-22T12:18:50;7.70;99.90
13322;DHT22;6730;46.248;6.930;2023-12-22T12:21:16;7.40;99.90
13322;DHT22;6730;46.248;6.930;2023-12-22T12:23:41;7.40;99.90
13322;DHT22;6730;46.248;6.930;2023-12-22T12:26:08;7.60;99.90
13322;DHT22;6730;46.248;6.930;2023-12-22T12:28:35;7.70;99.90
13322;DHT22;6730;46.248;6.930;2023-12-22T12:31:06;7.90;99.90
13322;DHT22;6730;46.248;6.930;2023-12-22T12:33:33;7.90;99.90
13322;DHT22;6730;46.248;6.930;2023-12-22T12:36:01;7.90;99.90
13322;DHT22;6730;46.248;6.930;2023-12-22T12:41:30;7.90;99.90
13322;DHT22;6730;46.248;6.930;2023-12-22T12:43:58;8.10;99.90
13322;DHT22;6730;46.248;6.930;2023-12-22T12:46:32;8.10;99.90
13322;DHT22;6730;46.248;6.930;2023-12-22T12:49:08;7.70;99.90
13322;DHT22;6730;46.248;6.930;2023-12-22T12:51:43;7.50;99.90
13322;DHT22;6730;46.248;6.930;2023-12-22T12:54:10;7.80;99.90
13322;DHT22;6730;46.248;6.930;2023-12-22T12:56:38;8.00;99.90
13322;DHT22;6730;46.248;6.930;2023-12-22T12:59:12;8.30;99.90
13322;DHT22;6730;46.248;6.930;2023-12-22T13:01:39;8.30;99.90
13322;DHT22;6730;46.248;6.930;2023-12-22T13:04:05;8.00;99.90
13322;DHT22;6730;46.248;6.930;2023-12-22T13:06:32;8.20;99.90
13322;DHT22;6730;46.248;6.930;2023-12-22T13:08:58;8.00;99.90
13322;DHT22;6730;46.248;6.930;2023-12-22T13:11:29;7.70;99.90
13322;DHT22;6730;46.248;6.930;2023-12-22T13:13:56;7.90;99.90
13322;DHT22;6730;46.248;6.930;2023-12-22T13:16:24;7.70;99.90
13322;DHT22;6730;46.248;6.930;2023-12-22T13:18:58;7.70;99.90
13322;DHT22;6730;46.248;6.930;2023-12-22T13:21:33;7.80;99.90
13322;DHT22;6730;46.248;6.930;2023-12-22T13:24:13;8.00;99.90
13322;DHT22;6730;46.248;6.930;2023-12-22T13:27:04;7.90;99.90
13322;DHT22;6730;46.248;6.930;2023-12-22T13:29:44;7.60;99.90
13322;DHT22;6730;46.248;6.930;2023-12-22T13:32:20;7.80;99.90
13322;DHT22;6730;46.248;6.930;2023-12-22T13:34:56;7.90;99.90
13322;DHT22;6730;46.248;6.930;2023-12-22T13:37:25;7.90;99.90
13322;DHT22;6730;46.248;6.930;2023-12-22T13:39:56;7.80;99.90
13322;DHT22;6730;46.248;6.930;2023-12-22T13:42:23;7.70;99.90
13322;DHT22;6730;46.248;6.930;2023-12-22T13:44:50;7.70;99.90
13322;DHT22;6730;46.248;6.930;2023-12-22T13:47:18;7.80;99.90
13322;DHT22;6730;46.248;6.930;2023-12-22T13:49:45;7.90;99.90
13322;DHT22;6730;46.248;6.930;2023-12-22T13:52:30;7.90;99.90
13322;DHT22;6730;46.248;6.930;2023-12-22T13:55:18;7.90;99.90
13322;DHT22;6730;46.248;6.930;2023-12-22T13:57:44;8.10;99.90
13322;DHT22;6730;46.248;6.930;2023-12-22T14:02:48;7.90;99.90
13322;DHT22;6730;46.248;6.930;2023-12-22T14:05:18;7.90;99.90
13322;DHT22;6730;46.248;6.930;2023-12-22T14:07:44;8.10;99.90
13322;DHT22;6730;46.248;6.930;2023-12-22T14:10:10;8.30;99.90
13322;DHT22;6730;46.248;6.930;2023-12-22T14:12:36;8.50;99.90
13322;DHT22;6730;46.248;6.930;2023-12-22T14:15:10;8.70;99.90
13322;DHT22;6730;46.248;6.930;2023-12-22T14:17:36;8.60;99.90
13322;DHT22;6730;46.248;6.930;2023-12-22T14:20:02;8.50;99.90
13322;DHT22;6730;46.248;6.930;2023-12-22T14:22:30;8.10;99.90
13322;DHT22;6730;46.248;6.930;2023-12-22T14:24:56;7.60;99.90
13322;DHT22;6730;46.248;6.930;2023-12-22T14:27:25;7.70;99.90
13322;DHT22;6730;46.248;6.930;2023-12-22T14:29:50;8.00;99.90
13322;DHT22;6730;46.248;6.930;2023-12-22T14:32:16;8.20;99.90
13322;DHT22;6730;46.248;6.930;2023-12-22T14:34:44;8.00;99.90
13322;DHT22;6730;46.248;6.930;2023-12-22T14:37:10;8.00;99.90
13322;DHT22;6730;46.248;6.930;2023-12-22T14:39:36;7.90;99.90
13322;DHT22;6730;46.248;6.930;2023-12-22T14:42:02;8.10;99.90
13322;DHT22;6730;46.248;6.930;2023-12-22T14:44:31;8.30;99.90
13322;DHT22;6730;46.248;6.930;2023-12-22T14:46:56;8.30;99.90
13322;DHT22;6730;46.248;6.930;2023-12-22T14:49:22;8.50;99.90
13322;DHT22;6730;46.248;6.930;2023-12-22T14:51:47;8.50;99.90
13322;DHT22;6730;46.248;6.930;2023-12-22T14:54:17;8.40;99.90
13322;DHT22;6730;46.248;6.930;2023-12-22T14:56:43;8.30;99.90
13322;DHT22;6730;46.248;6.930;2023-12-22T14:59:09;7.90;99.90
13322;DHT22;6730;46.248;6.930;2023-12-22T15:01:36;7.20;99.90
13322;DHT22;6730;46.248;6.930;2023-12-22T15:04:02;7.20;99.90
13322;DHT22;6730;46.248;6.930;2023-12-22T15:06:28;7.50;99.90
13322;DHT22;6730;46.248;6.930;2023-12-22T15:08:54;7.70;99.90
13322;DHT22;6730;46.248;6.930;2023-12-22T15:11:20;7.90;99.90
13322;DHT22;6730;46.248;6.930;2023-12-22T15:13:46;7.70;99.90
13322;DHT22;6730;46.248;6.930;2023-12-22T15:16:11;7.80;99.90
13322;DHT22;6730;46.248;6.930;2023-12-22T15:18:37;8.00;99.90
13322;DHT22;6730;46.248;6.930;2023-12-22T15:21:03;8.00;99.90
13322;DHT22;6730;46.248;6.930;2023-12-22T15:23:29;8.00;99.90
13322;DHT22;6730;46.248;6.930;2023-12-22T15:25:57;7.80;99.90
13322;DHT22;6730;46.248;6.930;2023-12-22T15:28:23;7.60;99.90
13322;DHT22;6730;46.248;6.930;2023-12-22T15:30:49;7.60;99.90
13322;DHT22;6730;46.248;6.930;2023-12-22T15:33:14;7.70;99.90
13322;DHT22;6730;46.248;6.930;2023-12-22T15:35:40;7.80;99.90
13322;DHT22;6730;46.248;6.930;2023-12-22T15:38:05;7.80;99.90
13322;DHT22;6730;46.248;6.930;2023-12-22T15:40:31;7.80;99.90
13322;DHT22;6730;46.248;6.930;2023-12-22T15:42:57;8.00;99.90
13322;DHT22;6730;46.248;6.930;2023-12-22T15:45:22;7.90;99.90
13322;DHT22;6730;46.248;6.930;2023-12-22T15:47:48;8.00;99.90
13322;DHT22;6730;46.248;6.930;2023-12-22T15:50:14;7.90;99.90
13322;DHT22;6730;46.248;6.930;2023-12-22T15:52:41;7.90;99.90
13322;DHT22;6730;46.248;6.930;2023-12-22T15:55:07;7.90;99.90
13322;DHT22;6730;46.248;6.930;2023-12-22T15:57:34;7.80;99.90
13322;DHT22;6730;46.248;6.930;2023-12-22T16:00:00;7.80;99.90
13322;DHT22;6730;46.248;6.930;2023-12-22T16:02:25;7.70;99.90
13322;DHT22;6730;46.248;6.930;2023-12-22T16:04:51;7.80;99.90
13322;DHT22;6730;46.248;6.930;2023-12-22T16:07:17;7.80;99.90
13322;DHT22;6730;46.248;6.930;2023-12-22T16:09:43;7.70;99.90
13322;DHT22;6730;46.248;6.930;2023-12-22T16:12:08;7.60;99.90